createdAt,value
2022-10-02T00:01:23.758Z,86.70
2022-10-02T00:03:51.367Z,86.80
2022-10-02T00:06:41.266Z,86.80
2022-10-02T00:09:14.752Z,86.70
2022-10-02T00:11:48.967Z,86.80
2022-10-02T00:14:20.126Z,86.80
2022-10-02T00:16:51.234Z,86.80
2022-10-02T00:19:20.139Z,87.00
2022-10-02T00:22:13.686Z,87.00
2022-10-02T00:24:51.909Z,87.00
2022-10-02T00:27:33.660Z,87.10
2022-10-02T00:30:04.055Z,87.30
2022-10-02T00:32:52.394Z,87.30
2022-10-02T00:35:25.292Z,87.20
2022-10-02T00:38:23.883Z,87.30
2022-10-02T00:41:20.310Z,87.30
2022-10-02T00:44:29.779Z,88.20
2022-10-02T00:47:23.131Z,87.30
2022-10-02T00:50:15.807Z,87.40
2022-10-02T00:53:11.003Z,87.40
2022-10-02T00:55:59.674Z,87.40
2022-10-02T00:58:45.603Z,87.50
2022-10-02T01:01:18.345Z,87.50
2022-10-02T01:03:56.361Z,87.50
2022-10-02T01:06:28.468Z,87.50
2022-10-02T01:08:56.340Z,87.50
2022-10-02T01:11:25.940Z,87.60
2022-10-02T01:13:53.770Z,87.70
2022-10-02T01:16:20.928Z,87.70
2022-10-02T01:18:50.625Z,87.60
2022-10-02T01:21:45.723Z,87.70
2022-10-02T01:24:30.781Z,87.70
2022-10-02T01:26:58.465Z,87.90
2022-10-02T01:29:25.804Z,88.00
2022-10-02T01:31:53.191Z,88.00
2022-10-02T01:34:21.008Z,88.10
2022-10-02T01:36:48.413Z,88.20
2022-10-02T01:39:18.584Z,88.10
2022-10-02T01:41:45.729Z,88.20
2022-10-02T01:44:15.910Z,88.00
2022-10-02T01:46:52.071Z,88.10
2022-10-02T01:49:39.827Z,87.90
2022-10-02T01:52:37.655Z,87.90
2022-10-02T01:55:31.205Z,88.00
2022-10-02T01:58:08.000Z,87.90
2022-10-02T02:01:06.639Z,87.90
2022-10-02T02:03:54.979Z,88.00
2022-10-02T02:06:58.602Z,88.10
2022-10-02T02:09:38.708Z,88.10
2022-10-02T02:12:12.132Z,88.20
2022-10-02T02:14:47.540Z,88.10
2022-10-02T02:17:33.715Z,88.40
2022-10-02T02:20:06.231Z,88.30
2022-10-02T02:22:43.663Z,88.30
2022-10-02T02:25:16.985Z,88.30
2022-10-02T02:27:55.007Z,88.50
2022-10-02T02:30:23.508Z,88.50
2022-10-02T02:32:57.091Z,88.60
2022-10-02T02:35:53.420Z,88.60
2022-10-02T02:38:32.460Z,88.70
2022-10-02T02:41:24.390Z,88.70
2022-10-02T02:44:15.208Z,88.60
2022-10-02T02:47:06.846Z,88.80
2022-10-02T02:49:56.873Z,88.70
2022-10-02T02:52:33.732Z,88.70
2022-10-02T02:55:09.998Z,88.80
2022-10-02T02:57:56.399Z,88.80
2022-10-02T03:00:25.162Z,88.80
2022-10-02T03:02:58.687Z,88.80
2022-10-02T03:05:26.482Z,88.90
2022-10-02T03:08:04.557Z,88.80
2022-10-02T03:10:55.050Z,88.90
2022-10-02T03:13:25.350Z,88.90
2022-10-02T03:16:01.744Z,88.90
2022-10-02T03:18:48.205Z,89.00
2022-10-02T03:21:26.043Z,89.10
2022-10-02T03:24:15.084Z,89.10
2022-10-02T03:26:53.555Z,89.30
2022-10-02T03:29:44.058Z,89.20
2022-10-02T03:32:13.934Z,89.20
2022-10-02T03:34:43.273Z,89.20
2022-10-02T03:37:10.550Z,89.20
2022-10-02T03:39:43.410Z,89.30
2022-10-02T03:42:15.061Z,89.30
2022-10-02T03:44:43.533Z,89.40
2022-10-02T03:47:13.391Z,89.40
2022-10-02T03:49:40.919Z,89.40
2022-10-02T03:52:08.235Z,89.40
2022-10-02T03:54:36.011Z,89.40
2022-10-02T03:57:07.806Z,89.70
2022-10-02T03:59:39.839Z,89.70
2022-10-02T04:02:19.099Z,89.60
2022-10-02T04:04:54.671Z,89.50
2022-10-02T04:07:31.052Z,89.50
2022-10-02T04:10:28.146Z,89.40
2022-10-02T04:13:10.475Z,89.60
2022-10-02T04:16:04.468Z,89.70
2022-10-02T04:19:04.393Z,89.70
2022-10-02T04:21:51.324Z,89.80
2022-10-02T04:24:27.037Z,89.80
2022-10-02T04:27:12.138Z,89.80
2022-10-02T04:29:47.758Z,89.80
2022-10-02T04:32:17.349Z,89.80
2022-10-02T04:34:44.755Z,89.80
2022-10-02T04:37:31.950Z,89.80
2022-10-02T04:40:50.645Z,90.00
2022-10-02T04:43:45.960Z,90.00
2022-10-02T04:46:43.775Z,90.10
2022-10-02T04:49:37.065Z,90.10
2022-10-02T04:52:28.699Z,90.10
2022-10-02T04:55:11.065Z,90.10
2022-10-02T04:57:47.642Z,90.10
2022-10-02T05:00:21.142Z,90.20
2022-10-02T05:03:09.637Z,90.10
2022-10-02T05:06:05.988Z,90.10
2022-10-02T05:08:52.273Z,90.10
2022-10-02T05:11:52.204Z,90.20
2022-10-02T05:14:56.967Z,90.20
2022-10-02T05:17:53.648Z,90.20
2022-10-02T05:20:57.702Z,90.30
2022-10-02T05:23:31.134Z,90.20
2022-10-02T05:26:29.152Z,90.30
2022-10-02T05:29:33.726Z,90.30
2022-10-02T05:32:17.303Z,90.30
2022-10-02T05:34:53.642Z,90.30
2022-10-02T05:37:53.438Z,90.30
2022-10-02T05:40:42.693Z,90.30
2022-10-02T05:43:26.501Z,90.30
2022-10-02T05:45:58.567Z,90.40
2022-10-02T05:48:46.536Z,90.40
2022-10-02T05:51:30.198Z,90.30
2022-10-02T05:54:07.078Z,90.40
2022-10-02T05:56:44.762Z,90.40
2022-10-02T05:59:41.852Z,90.40
2022-10-02T06:02:24.148Z,90.40
2022-10-02T06:05:03.447Z,90.50
2022-10-02T06:07:32.945Z,90.50
2022-10-02T06:10:11.087Z,90.50
2022-10-02T06:13:02.371Z,90.50
2022-10-02T06:15:52.129Z,90.50
2022-10-02T06:18:24.106Z,90.50
2022-10-02T06:21:13.035Z,90.50
2022-10-02T06:23:44.901Z,90.50
2022-10-02T06:26:22.450Z,90.60
2022-10-02T06:28:56.247Z,90.70
2022-10-02T06:31:42.966Z,90.70
2022-10-02T06:34:13.213Z,90.70
2022-10-02T06:36:55.287Z,90.70
2022-10-02T06:39:41.754Z,90.60
2022-10-02T06:42:22.801Z,90.60
2022-10-02T06:45:14.465Z,90.60
2022-10-02T06:47:59.663Z,90.70
2022-10-02T06:50:51.734Z,90.70
2022-10-02T06:53:45.915Z,90.70
2022-10-02T06:56:37.377Z,90.70
2022-10-02T06:59:12.881Z,90.70
2022-10-02T07:02:18.500Z,90.70
2022-10-02T07:05:22.120Z,90.70
2022-10-02T07:08:00.369Z,90.70
2022-10-02T07:10:57.039Z,90.70
2022-10-02T07:13:49.108Z,90.70
2022-10-02T07:16:25.815Z,90.70
2022-10-02T07:19:05.985Z,90.80
2022-10-02T07:21:49.035Z,90.80
2022-10-02T07:24:44.040Z,90.70
2022-10-02T07:27:23.556Z,90.80
2022-10-02T07:30:10.201Z,90.70
2022-10-02T07:32:52.541Z,90.70
2022-10-02T07:35:28.428Z,90.70
2022-10-02T07:38:43.573Z,90.70
2022-10-02T07:41:44.602Z,90.70
2022-10-02T07:44:40.721Z,90.70
2022-10-02T07:47:48.619Z,90.70
2022-10-02T07:50:33.953Z,90.70
2022-10-02T07:53:15.959Z,90.70
2022-10-02T07:55:53.452Z,90.80
2022-10-02T07:58:31.480Z,90.80
2022-10-02T08:01:06.177Z,91.10
2022-10-02T08:03:44.220Z,90.80
2022-10-02T08:06:12.229Z,90.70
2022-10-02T08:08:44.494Z,90.70
2022-10-02T08:11:30.403Z,90.70
2022-10-02T08:14:03.507Z,90.70
2022-10-02T08:16:36.760Z,90.70
2022-10-02T08:19:17.450Z,90.70
2022-10-02T08:21:50.489Z,90.70
2022-10-02T08:24:24.601Z,90.70
2022-10-02T08:27:04.778Z,90.70
2022-10-02T08:29:40.573Z,90.70
2022-10-02T08:32:12.698Z,90.70
2022-10-02T08:34:41.861Z,90.60
2022-10-02T08:37:24.666Z,90.70
2022-10-02T08:40:19.872Z,90.60
2022-10-02T08:43:11.351Z,90.70
2022-10-02T08:46:06.925Z,90.70
2022-10-02T08:48:54.909Z,90.70
2022-10-02T08:52:05.951Z,90.60
2022-10-02T08:54:50.893Z,90.70
2022-10-02T08:57:36.091Z,90.70
2022-10-02T09:00:31.930Z,90.60
2022-10-02T09:03:46.000Z,90.60
2022-10-02T09:06:20.090Z,90.70
2022-10-02T09:09:36.566Z,90.70
2022-10-02T09:12:28.373Z,90.60
2022-10-02T09:15:14.301Z,90.70
2022-10-02T09:18:01.273Z,90.70
2022-10-02T09:20:37.248Z,90.60
2022-10-02T09:23:26.593Z,90.70
2022-10-02T09:26:28.617Z,90.60
2022-10-02T09:29:07.965Z,90.50
2022-10-02T09:32:09.798Z,90.50
2022-10-02T09:35:16.863Z,90.50
2022-10-02T09:38:14.557Z,90.50
2022-10-02T09:40:56.899Z,90.40
2022-10-02T09:43:30.215Z,90.40
2022-10-02T09:46:27.122Z,90.40
2022-10-02T09:49:13.862Z,90.40
2022-10-02T09:52:13.784Z,90.50
2022-10-02T09:55:08.975Z,90.50
2022-10-02T09:58:02.721Z,90.40
2022-10-02T10:00:33.127Z,90.40
2022-10-02T10:03:20.058Z,90.40
2022-10-02T10:06:21.307Z,90.40
2022-10-02T10:09:27.048Z,90.40
2022-10-02T10:12:12.233Z,90.40
2022-10-02T10:14:48.275Z,90.30
2022-10-02T10:17:22.373Z,90.30
2022-10-02T10:20:25.920Z,90.20
2022-10-02T10:23:16.639Z,90.10
2022-10-02T10:26:18.222Z,90.20
2022-10-02T10:29:11.833Z,90.10
2022-10-02T10:32:33.415Z,90.10
2022-10-02T10:35:31.637Z,90.10
2022-10-02T10:38:33.240Z,90.10
2022-10-02T10:41:19.467Z,90.10
2022-10-02T10:43:58.476Z,89.90
2022-10-02T10:46:41.602Z,89.10
2022-10-02T10:49:45.937Z,87.90
2022-10-02T10:52:34.126Z,87.40
2022-10-02T10:55:34.435Z,87.40
2022-10-02T10:58:04.687Z,87.60
2022-10-02T11:01:10.955Z,87.20
2022-10-02T11:04:07.578Z,86.90
2022-10-02T11:06:46.083Z,86.90
2022-10-02T11:09:40.873Z,87.20
2022-10-02T11:12:25.153Z,86.80
2022-10-02T11:15:19.501Z,87.10
2022-10-02T11:18:12.919Z,87.00
2022-10-02T11:20:58.939Z,86.80
2022-10-02T11:23:32.106Z,86.30
2022-10-02T11:26:07.937Z,86.20
2022-10-02T11:29:16.564Z,86.10
2022-10-02T11:31:55.766Z,85.70
2022-10-02T11:34:51.305Z,85.30
2022-10-02T11:37:39.382Z,85.10
2022-10-02T11:40:26.871Z,85.10
2022-10-02T11:43:30.541Z,79.50
2022-10-02T11:46:36.496Z,77.30
2022-10-02T11:49:12.670Z,76.70
2022-10-02T11:52:01.430Z,77.50
2022-10-02T11:55:03.070Z,78.50
2022-10-02T11:57:47.574Z,77.00
2022-10-02T12:00:39.585Z,76.80
2022-10-02T12:03:20.868Z,77.10
2022-10-02T12:06:12.196Z,76.40
2022-10-02T12:09:08.673Z,76.10
2022-10-02T12:11:54.423Z,74.70
2022-10-02T12:14:26.758Z,73.30
2022-10-02T12:17:08.718Z,74.10
2022-10-02T12:20:13.934Z,73.60
2022-10-02T12:23:23.193Z,72.90
2022-10-02T12:26:11.806Z,72.70
2022-10-02T12:28:56.204Z,72.60
2022-10-02T12:31:38.717Z,71.30
2022-10-02T12:34:33.253Z,72.10
2022-10-02T12:37:17.976Z,71.80
2022-10-02T12:39:44.974Z,70.40
2022-10-02T12:42:47.377Z,70.30
2022-10-02T12:45:47.737Z,70.00
2022-10-02T12:48:33.460Z,71.00
2022-10-02T12:51:28.500Z,71.70
2022-10-02T12:54:44.048Z,72.10
2022-10-02T12:57:56.070Z,72.50
2022-10-02T13:00:31.259Z,72.90
2022-10-02T13:03:10.564Z,73.30
2022-10-02T13:13:04.742Z,72.70
2022-10-02T13:16:13.867Z,73.20
2022-10-02T13:19:13.213Z,73.20
2022-10-02T13:22:14.253Z,73.30
2022-10-02T13:25:02.324Z,73.40
2022-10-02T13:27:40.374Z,73.70
2022-10-02T13:30:21.498Z,73.90
2022-10-02T13:33:08.531Z,73.60
2022-10-02T13:36:00.588Z,73.40
2022-10-02T13:38:46.048Z,73.00
2022-10-02T13:41:36.000Z,73.00
2022-10-02T13:44:36.169Z,72.60
2022-10-02T13:47:26.717Z,72.90
2022-10-02T13:50:23.783Z,72.40
2022-10-02T13:53:28.273Z,72.20
2022-10-02T13:56:14.698Z,71.60
2022-10-02T13:58:53.672Z,71.50
2022-10-02T14:01:59.986Z,70.70
2022-10-02T14:04:46.295Z,70.20
2022-10-02T14:07:21.543Z,70.30
2022-10-02T14:10:30.467Z,70.00
2022-10-02T14:13:49.935Z,70.10
2022-10-02T14:16:28.408Z,70.20
2022-10-02T14:19:20.138Z,69.70
2022-10-02T14:22:11.899Z,70.00
2022-10-02T14:25:05.397Z,70.20
2022-10-02T14:27:51.265Z,70.80
2022-10-02T14:30:45.229Z,70.90
2022-10-02T14:33:27.403Z,71.10
2022-10-02T14:36:01.373Z,71.20
2022-10-02T14:38:37.432Z,71.80
2022-10-02T14:41:22.021Z,72.50
2022-10-02T14:44:28.575Z,73.30
2022-10-02T14:47:15.715Z,73.80
2022-10-02T14:50:27.268Z,74.10
2022-10-02T14:53:43.425Z,74.00
2022-10-02T14:56:25.677Z,73.90
2022-10-02T14:59:10.994Z,73.90
2022-10-02T15:01:51.029Z,73.90
2022-10-02T15:04:37.247Z,74.00
2022-10-02T15:07:14.354Z,73.80
2022-10-02T15:10:02.625Z,73.90
2022-10-02T15:12:35.968Z,73.90
2022-10-02T15:15:15.988Z,73.70
2022-10-02T15:18:25.136Z,73.60
2022-10-02T15:21:00.563Z,73.50
2022-10-02T15:23:34.482Z,73.50
2022-10-02T15:26:22.555Z,73.40
2022-10-02T15:29:11.512Z,73.40
2022-10-02T15:32:21.692Z,73.50
2022-10-02T15:35:25.585Z,73.50
2022-10-02T15:38:04.423Z,73.60
2022-10-02T15:40:53.525Z,73.70
2022-10-02T15:43:54.434Z,71.10
2022-10-02T15:46:53.760Z,71.30
2022-10-02T15:49:40.429Z,70.10
2022-10-02T15:52:37.589Z,70.10
2022-10-02T15:55:24.029Z,69.00
2022-10-02T15:58:09.989Z,68.80
2022-10-02T16:01:02.434Z,68.60
2022-10-02T16:03:45.251Z,68.40
2022-10-02T16:06:54.040Z,68.10
2022-10-02T16:09:39.708Z,68.60
2022-10-02T16:12:34.533Z,68.60
2022-10-02T16:15:30.482Z,68.80
2022-10-02T16:18:22.559Z,69.10
2022-10-02T16:21:12.737Z,69.10
2022-10-02T16:24:05.890Z,69.30
2022-10-02T16:26:45.858Z,69.50
2022-10-02T16:29:21.791Z,69.60
2022-10-02T16:32:25.313Z,69.30
2022-10-02T16:35:22.549Z,69.30
2022-10-02T16:38:00.035Z,69.60
2022-10-02T16:40:29.960Z,69.80
2022-10-02T16:43:54.972Z,70.00
2022-10-02T16:46:34.668Z,70.00
2022-10-02T16:49:19.745Z,70.20
2022-10-02T16:52:25.046Z,70.00
2022-10-02T16:55:13.021Z,70.10
2022-10-02T16:57:43.095Z,70.20
2022-10-02T17:00:22.709Z,70.30
2022-10-02T17:02:56.348Z,71.20
2022-10-02T17:05:35.591Z,70.50
2022-10-02T17:08:34.205Z,70.60
2022-10-02T17:11:16.734Z,70.70
2022-10-02T17:14:16.709Z,70.80
2022-10-02T17:17:05.531Z,71.00
2022-10-02T17:19:47.570Z,71.20
2022-10-02T17:22:46.158Z,71.30
2022-10-02T17:25:31.694Z,71.40
2022-10-02T17:28:31.161Z,71.40
2022-10-02T17:31:00.978Z,71.40
2022-10-02T17:33:44.341Z,71.60
2022-10-02T17:36:31.670Z,71.80
2022-10-02T17:39:19.940Z,71.90
2022-10-02T17:42:16.945Z,71.90
2022-10-02T17:44:59.094Z,72.10
2022-10-02T17:47:50.357Z,72.60
2022-10-02T17:50:34.337Z,72.50
2022-10-02T17:53:42.006Z,72.60
2022-10-02T17:56:30.134Z,72.60
2022-10-02T17:59:12.484Z,72.80
2022-10-02T18:02:14.916Z,72.80
2022-10-02T18:05:17.612Z,72.90
2022-10-02T18:07:54.289Z,73.00
2022-10-02T18:10:42.826Z,73.10
2022-10-02T18:13:31.230Z,73.20
2022-10-02T18:16:09.097Z,73.20
2022-10-02T18:18:59.497Z,73.30
2022-10-02T18:21:48.004Z,73.30
2022-10-02T18:24:44.549Z,73.30
2022-10-02T18:27:49.999Z,73.40
2022-10-02T18:30:22.856Z,73.50
2022-10-02T18:33:24.155Z,73.60
2022-10-02T18:36:25.148Z,73.60
2022-10-02T18:39:00.746Z,73.80
2022-10-02T18:41:52.206Z,73.80
2022-10-02T18:44:53.645Z,73.90
2022-10-02T18:47:58.210Z,74.00
2022-10-02T18:50:54.025Z,74.10
2022-10-02T18:53:49.237Z,74.30
2022-10-02T18:56:23.024Z,74.40
2022-10-02T18:59:18.675Z,74.70
2022-10-02T19:02:20.356Z,74.80
2022-10-02T19:05:13.296Z,74.90
2022-10-02T19:07:46.760Z,74.90
2022-10-02T19:10:32.197Z,74.90
2022-10-02T19:13:17.945Z,74.90
2022-10-02T19:15:47.342Z,74.90
2022-10-02T19:18:21.650Z,74.80
2022-10-02T19:21:09.591Z,74.90
2022-10-02T19:23:51.226Z,74.90
2022-10-02T19:26:52.212Z,74.90
2022-10-02T19:29:37.512Z,74.90
2022-10-02T19:32:16.153Z,75.10
2022-10-02T19:34:43.659Z,75.00
2022-10-02T19:37:17.306Z,75.90
2022-10-02T19:39:56.283Z,75.00
2022-10-02T19:42:32.465Z,75.20
2022-10-02T19:45:03.387Z,76.10
2022-10-02T19:47:38.894Z,75.40
2022-10-02T19:50:08.465Z,75.60
2022-10-02T19:53:13.661Z,75.60
2022-10-02T19:55:42.379Z,75.70
2022-10-02T19:58:17.284Z,76.00
2022-10-02T20:00:44.459Z,76.00
2022-10-02T20:03:21.455Z,76.00
2022-10-02T20:05:55.777Z,76.00
2022-10-02T20:08:30.877Z,76.10
2022-10-02T20:11:32.909Z,76.20
2022-10-02T20:14:10.941Z,76.20
2022-10-02T20:16:57.396Z,76.30
2022-10-02T20:19:27.442Z,76.30
2022-10-02T20:21:57.199Z,76.30
2022-10-02T20:24:24.242Z,76.30
2022-10-02T20:26:56.106Z,76.30
2022-10-02T20:29:29.831Z,76.40
2022-10-02T20:32:07.840Z,76.50
2022-10-02T20:34:50.326Z,76.60
2022-10-02T20:37:22.609Z,76.60
2022-10-02T20:40:00.060Z,77.50
2022-10-02T20:42:50.495Z,76.70
2022-10-02T20:45:18.203Z,76.70
2022-10-02T20:48:11.432Z,76.70
2022-10-02T20:51:07.178Z,76.70
2022-10-02T20:53:50.220Z,76.80
2022-10-02T20:56:45.376Z,76.80
2022-10-02T20:59:48.232Z,76.80
2022-10-02T21:02:43.425Z,76.80
2022-10-02T21:05:35.879Z,76.90
2022-10-02T21:08:27.865Z,77.00
2022-10-02T21:11:06.889Z,76.90
2022-10-02T21:13:49.970Z,77.00
2022-10-02T21:16:39.068Z,77.00
2022-10-02T21:19:44.444Z,77.10
2022-10-02T21:22:45.150Z,77.20
2022-10-02T21:25:50.138Z,77.30
2022-10-02T21:28:55.544Z,77.40
2022-10-02T21:32:10.326Z,77.50
2022-10-02T21:34:58.061Z,77.50
2022-10-02T21:38:00.144Z,77.60
2022-10-02T21:41:14.573Z,77.60
2022-10-02T21:44:16.478Z,77.70
2022-10-02T21:47:11.482Z,77.90
2022-10-02T21:50:00.230Z,77.80
2022-10-02T21:53:01.830Z,77.90
2022-10-02T21:55:35.033Z,77.90
2022-10-02T21:58:34.912Z,78.00
2022-10-02T22:02:04.288Z,78.10
2022-10-02T22:04:55.188Z,78.00
2022-10-02T22:07:45.928Z,78.00
2022-10-02T22:10:19.847Z,78.10
2022-10-02T22:13:26.454Z,78.10
2022-10-02T22:15:54.522Z,78.20
2022-10-02T22:18:40.270Z,78.30
2022-10-02T22:21:30.373Z,78.30
2022-10-02T22:24:06.509Z,78.40
2022-10-02T22:27:11.444Z,78.40
2022-10-02T22:29:46.502Z,78.40
2022-10-02T22:33:03.129Z,78.40
2022-10-02T22:36:03.854Z,78.50
2022-10-02T22:38:51.746Z,78.60
2022-10-02T22:41:26.614Z,78.60
2022-10-02T22:44:18.742Z,78.60
2022-10-02T22:46:53.708Z,78.60
2022-10-02T22:49:36.108Z,78.70
2022-10-02T22:52:18.031Z,78.70
2022-10-02T22:55:03.484Z,78.80
2022-10-02T22:57:41.886Z,78.80
2022-10-02T23:00:32.892Z,78.90
2022-10-02T23:03:19.494Z,78.90
2022-10-02T23:06:03.457Z,79.00
2022-10-02T23:09:06.210Z,79.10
2022-10-02T23:11:50.434Z,79.10
2022-10-02T23:14:25.948Z,79.20
2022-10-02T23:17:11.911Z,79.30
2022-10-02T23:20:12.065Z,79.30
2022-10-02T23:23:01.486Z,79.30
2022-10-02T23:25:45.236Z,79.40
2022-10-02T23:28:26.435Z,79.50
2022-10-02T23:31:30.269Z,79.60
2022-10-02T23:34:17.449Z,79.50
2022-10-02T23:36:56.058Z,79.60
2022-10-02T23:39:52.065Z,79.70
2022-10-02T23:42:26.619Z,79.80
2022-10-02T23:45:01.792Z,79.80
2022-10-02T23:47:49.392Z,79.80
2022-10-02T23:51:03.223Z,79.80
2022-10-02T23:53:52.533Z,79.80
2022-10-02T23:56:50.649Z,79.90
2022-10-02T23:59:32.864Z,80.00
